sensor_id;sensor_type;location;lat;lon;timestamp;pressure;altitude;pressure_sealevel;temperature;humidity
34073;BME280;20346;52.702;16.886;2022-08-19T00:01:24;100314.87;;;24.71;52.44
34073;BME280;20346;52.702;16.886;2022-08-19T00:04:11;100307.91;;;24.70;52.51
34073;BME280;20346;52.702;16.886;2022-08-19T00:06:58;100299.25;;;24.62;52.65
34073;BME280;20346;52.702;16.886;2022-08-19T00:09:43;100291.20;;;24.58;52.76
34073;BME280;20346;52.702;16.886;2022-08-19T00:12:28;100288.20;;;24.57;53.00
34073;BME280;20346;52.702;16.886;2022-08-19T00:15:15;100303.34;;;24.61;52.80
34073;BME280;20346;52.702;16.886;2022-08-19T00:18:03;100303.95;;;24.59;52.91
34073;BME280;20346;52.702;16.886;2022-08-19T00:20:48;100308.88;;;24.58;53.01
34073;BME280;20346;52.702;16.886;2022-08-19T00:23:33;100310.91;;;24.60;53.06
34073;BME280;20346;52.702;16.886;2022-08-19T00:26:19;100309.95;;;24.55;53.11
34073;BME280;20346;52.702;16.886;2022-08-19T00:29:06;100315.48;;;24.58;53.23
34073;BME280;20346;52.702;16.886;2022-08-19T00:31:53;100312.96;;;24.56;53.30
34073;BME280;20346;52.702;16.886;2022-08-19T00:34:39;100314.64;;;24.57;53.36
34073;BME280;20346;52.702;16.886;2022-08-19T00:37:24;100310.67;;;24.57;53.63
34073;BME280;20346;52.702;16.886;2022-08-19T00:40:11;100305.03;;;24.56;53.44
34073;BME280;20346;52.702;16.886;2022-08-19T00:42:56;100307.91;;;24.53;53.55
34073;BME280;20346;52.702;16.886;2022-08-19T00:45:41;100306.11;;;24.54;53.63
34073;BME280;20346;52.702;16.886;2022-08-19T00:48:27;100317.89;;;24.55;53.66
34073;BME280;20346;52.702;16.886;2022-08-19T00:51:12;100320.77;;;24.52;53.74
34073;BME280;20346;52.702;16.886;2022-08-19T00:53:58;100317.28;;;24.52;53.84
34073;BME280;20346;52.702;16.886;2022-08-19T00:56:45;100312.72;;;24.54;53.90
34073;BME280;20346;52.702;16.886;2022-08-19T00:59:30;100308.88;;;24.58;53.92
34073;BME280;20346;52.702;16.886;2022-08-19T01:02:16;100308.63;;;24.55;53.97
34073;BME280;20346;52.702;16.886;2022-08-19T01:05:06;100301.19;;;24.55;54.06
34073;BME280;20346;52.702;16.886;2022-08-19T01:07:58;100299.38;;;24.55;54.15
34073;BME280;20346;52.702;16.886;2022-08-19T01:10:47;100294.94;;;24.56;54.21
34073;BME280;20346;52.702;16.886;2022-08-19T01:13:34;100292.17;;;24.52;54.30
34073;BME280;20346;52.702;16.886;2022-08-19T01:16:22;100293.25;;;24.49;54.39
34073;BME280;20346;52.702;16.886;2022-08-19T01:19:30;100294.34;;;24.47;54.52
34073;BME280;20346;52.702;16.886;2022-08-19T01:25:45;100285.09;;;24.47;54.63
34073;BME280;20346;52.702;16.886;2022-08-19T01:28:35;100279.83;;;24.41;54.70
34073;BME280;20346;52.702;16.886;2022-08-19T01:31:24;100286.20;;;24.38;54.85
34073;BME280;20346;52.702;16.886;2022-08-19T01:34:10;100284.87;;;24.38;54.90
34073;BME280;20346;52.702;16.886;2022-08-19T01:36:55;100288.73;;;24.40;54.99
34073;BME280;20346;52.702;16.886;2022-08-19T01:39:40;100286.44;;;24.35;54.96
34073;BME280;20346;52.702;16.886;2022-08-19T01:42:26;100289.20;;;24.28;55.15
34073;BME280;20346;52.702;16.886;2022-08-19T01:45:11;100286.20;;;24.27;55.23
34073;BME280;20346;52.702;16.886;2022-08-19T01:47:57;100285.09;;;24.24;55.28
34073;BME280;20346;52.702;16.886;2022-08-19T01:50:43;100279.44;;;24.23;55.37
34073;BME280;20346;52.702;16.886;2022-08-19T01:53:28;100277.07;;;24.26;55.41
34073;BME280;20346;52.702;16.886;2022-08-19T01:56:14;100283.20;;;24.26;55.48
34073;BME280;20346;52.702;16.886;2022-08-19T01:59:02;100282.69;;;24.21;55.52
34073;BME280;20346;52.702;16.886;2022-08-19T02:01:49;100278.00;;;24.19;55.62
34073;BME280;20346;52.702;16.886;2022-08-19T02:04:35;100275.00;;;24.18;55.66
34073;BME280;20346;52.702;16.886;2022-08-19T02:07:21;100263.59;;;24.18;55.73
34073;BME280;20346;52.702;16.886;2022-08-19T02:10:09;100261.19;;;24.15;55.75
34073;BME280;20346;52.702;16.886;2022-08-19T02:12:56;100258.17;;;24.08;55.85
34073;BME280;20346;52.702;16.886;2022-08-19T02:15:43;100258.17;;;24.02;55.95
34073;BME280;20346;52.702;16.886;2022-08-19T02:18:28;100253.84;;;24.01;56.03
34073;BME280;20346;52.702;16.886;2022-08-19T02:21:14;100250.61;;;24.03;56.09
34073;BME280;20346;52.702;16.886;2022-08-19T02:24:00;100247.37;;;24.05;56.10
34073;BME280;20346;52.702;16.886;2022-08-19T02:26:45;100241.60;;;24.00;56.17
34073;BME280;20346;52.702;16.886;2022-08-19T02:29:31;100231.39;;;24.01;56.23
34073;BME280;20346;52.702;16.886;2022-08-19T02:32:17;100226.47;;;24.02;56.28
34073;BME280;20346;52.702;16.886;2022-08-19T02:35:05;100226.95;;;24.02;56.32
34073;BME280;20346;52.702;16.886;2022-08-19T02:37:50;100229.83;;;23.99;56.38
34073;BME280;20346;52.702;16.886;2022-08-19T02:40:57;100223.59;;;23.94;56.65
34073;BME280;20346;52.702;16.886;2022-08-19T02:43:46;100219.77;;;23.87;56.48
34073;BME280;20346;52.702;16.886;2022-08-19T02:46:32;100215.93;;;23.86;56.59
34073;BME280;20346;52.702;16.886;2022-08-19T02:49:17;100206.20;;;23.86;56.59
34073;BME280;20346;52.702;16.886;2022-08-19T02:52:03;100203.68;;;23.79;56.63
34073;BME280;20346;52.702;16.886;2022-08-19T02:54:48;100208.47;;;23.74;56.72
34073;BME280;20346;52.702;16.886;2022-08-19T02:57:33;100221.07;;;23.70;56.84
34073;BME280;20346;52.702;16.886;2022-08-19T03:00:18;100220.95;;;23.72;56.88
34073;BME280;20346;52.702;16.886;2022-08-19T03:03:03;100219.87;;;23.69;56.92
34073;BME280;20346;52.702;16.886;2022-08-19T03:05:48;100222.63;;;23.67;56.99
34073;BME280;20346;52.702;16.886;2022-08-19T03:08:33;100213.62;;;23.64;57.04
34073;BME280;20346;52.702;16.886;2022-08-19T03:11:21;100210.98;;;23.64;57.10
34073;BME280;20346;52.702;16.886;2022-08-19T03:14:09;100207.13;;;23.57;57.18
34073;BME280;20346;52.702;16.886;2022-08-19T03:16:54;100215.84;;;23.52;57.22
34073;BME280;20346;52.702;16.886;2022-08-19T03:19:40;100210.80;;;23.49;57.29
34073;BME280;20346;52.702;16.886;2022-08-19T03:22:25;100218.58;;;23.45;57.37
34073;BME280;20346;52.702;16.886;2022-08-19T03:25:10;100217.27;;;23.45;57.46
34073;BME280;20346;52.702;16.886;2022-08-19T03:27:56;100208.98;;;23.44;57.48
34073;BME280;20346;52.702;16.886;2022-08-19T03:30:44;100207.42;;;23.41;57.52
34073;BME280;20346;52.702;16.886;2022-08-19T03:33:32;100204.41;;;23.40;57.56
34073;BME280;20346;52.702;16.886;2022-08-19T03:36:20;100213.44;;;23.38;57.68
34073;BME280;20346;52.702;16.886;2022-08-19T03:39:07;100216.06;;;23.32;57.74
34073;BME280;20346;52.702;16.886;2022-08-19T03:41:54;100214.48;;;23.30;57.86
34073;BME280;20346;52.702;16.886;2022-08-19T03:44:44;100215.81;;;23.30;57.92
34073;BME280;20346;52.702;16.886;2022-08-19T03:47:29;100216.66;;;23.30;57.93
34073;BME280;20346;52.702;16.886;2022-08-19T03:50:14;100224.19;;;23.24;58.00
34073;BME280;20346;52.702;16.886;2022-08-19T03:53:00;100225.25;;;23.21;58.15
34073;BME280;20346;52.702;16.886;2022-08-19T03:55:44;100218.30;;;23.20;58.21
34073;BME280;20346;52.702;16.886;2022-08-19T03:58:30;100221.55;;;23.24;58.27
34073;BME280;20346;52.702;16.886;2022-08-19T04:01:18;100215.08;;;23.28;58.29
34073;BME280;20346;52.702;16.886;2022-08-19T04:04:04;100211.36;;;23.25;58.34
34073;BME280;20346;52.702;16.886;2022-08-19T04:06:50;100209.92;;;23.26;58.39
34073;BME280;20346;52.702;16.886;2022-08-19T04:09:35;100200.33;;;23.25;58.45
34073;BME280;20346;52.702;16.886;2022-08-19T04:12:20;100192.77;;;23.26;58.53
34073;BME280;20346;52.702;16.886;2022-08-19T04:15:06;100193.61;;;23.27;58.54
34073;BME280;20346;52.702;16.886;2022-08-19T04:17:51;100192.03;;;23.19;58.61
34073;BME280;20346;52.702;16.886;2022-08-19T04:20:45;100192.01;;;23.13;58.90
34073;BME280;20346;52.702;16.886;2022-08-19T04:23:29;100205.06;;;23.09;58.71
34073;BME280;20346;52.702;16.886;2022-08-19T04:26:17;100210.93;;;23.07;58.82
34073;BME280;20346;52.702;16.886;2022-08-19T04:29:07;100217.27;;;23.04;58.91
34073;BME280;20346;52.702;16.886;2022-08-19T04:31:55;100216.43;;;23.04;58.99
34073;BME280;20346;52.702;16.886;2022-08-19T04:34:40;100227.82;;;23.04;59.03
34073;BME280;20346;52.702;16.886;2022-08-19T04:37:27;100221.34;;;23.03;59.11
34073;BME280;20346;52.702;16.886;2022-08-19T04:40:14;100223.86;;;23.04;59.19
34073;BME280;20346;52.702;16.886;2022-08-19T04:43:17;100216.68;;;23.06;59.25
34073;BME280;20346;52.702;16.886;2022-08-19T04:46:10;100218.73;;;23.08;59.28
34073;BME280;20346;52.702;16.886;2022-08-19T04:48:56;100221.62;;;23.11;59.40
34073;BME280;20346;52.702;16.886;2022-08-19T04:51:43;100228.83;;;23.15;59.46
34073;BME280;20346;52.702;16.886;2022-08-19T04:54:29;100220.32;;;23.17;59.49
34073;BME280;20346;52.702;16.886;2022-08-19T04:57:13;100221.66;;;23.22;59.54
34073;BME280;20346;52.702;16.886;2022-08-19T04:59:59;100222.05;;;23.29;59.60
34073;BME280;20346;52.702;16.886;2022-08-19T05:02:44;100216.78;;;23.34;59.64
34073;BME280;20346;52.702;16.886;2022-08-19T05:05:28;100212.33;;;23.40;59.66
34073;BME280;20346;52.702;16.886;2022-08-19T05:08:18;100213.91;;;23.49;59.69
34073;BME280;20346;52.702;16.886;2022-08-19T05:11:10;100217.20;;;23.58;59.77
34073;BME280;20346;52.702;16.886;2022-08-19T05:14:07;100210.27;;;23.68;59.77
34073;BME280;20346;52.702;16.886;2022-08-19T05:16:53;100225.04;;;23.76;59.87
34073;BME280;20346;52.702;16.886;2022-08-19T05:19:38;100227.58;;;23.89;59.88
34073;BME280;20346;52.702;16.886;2022-08-19T05:22:42;100227.67;;;23.98;59.97
34073;BME280;20346;52.702;16.886;2022-08-19T05:25:28;100226.75;;;24.27;59.94
34073;BME280;20346;52.702;16.886;2022-08-19T05:28:13;100228.30;;;24.41;59.81
34073;BME280;20346;52.702;16.886;2022-08-19T05:30:58;100225.48;;;24.54;59.83
34073;BME280;20346;52.702;16.886;2022-08-19T05:33:43;100226.91;;;24.63;59.87
34073;BME280;20346;52.702;16.886;2022-08-19T05:36:32;100212.53;;;24.88;59.86
34073;BME280;20346;52.702;16.886;2022-08-19T05:39:20;100213.94;;;24.98;59.70
34073;BME280;20346;52.702;16.886;2022-08-19T05:42:08;100208.15;;;25.04;59.67
34073;BME280;20346;52.702;16.886;2022-08-19T05:44:53;100213.20;;;25.01;59.60
34073;BME280;20346;52.702;16.886;2022-08-19T05:47:39;100215.73;;;25.03;59.70
34073;BME280;20346;52.702;16.886;2022-08-19T05:50:25;100220.19;;;25.29;59.73
34073;BME280;20346;52.702;16.886;2022-08-19T05:53:10;100209.23;;;25.69;59.67
34073;BME280;20346;52.702;16.886;2022-08-19T05:55:55;100200.12;;;26.08;59.47
34073;BME280;20346;52.702;16.886;2022-08-19T05:58:40;100199.14;;;26.40;59.26
34073;BME280;20346;52.702;16.886;2022-08-19T06:01:26;100189.67;;;26.66;59.08
34073;BME280;20346;52.702;16.886;2022-08-19T06:04:12;100182.00;;;26.82;58.97
34073;BME280;20346;52.702;16.886;2022-08-19T06:06:57;100188.36;;;27.04;58.86
34073;BME280;20346;52.702;16.886;2022-08-19T06:09:42;100179.41;;;27.25;58.66
34073;BME280;20346;52.702;16.886;2022-08-19T06:12:28;100182.50;;;27.53;58.56
34073;BME280;20346;52.702;16.886;2022-08-19T06:15:16;100173.57;;;27.91;58.42
34073;BME280;20346;52.702;16.886;2022-08-19T06:18:01;100176.63;;;28.24;58.13
34073;BME280;20346;52.702;16.886;2022-08-19T06:20:46;100185.25;;;28.36;57.87
34073;BME280;20346;52.702;16.886;2022-08-19T06:23:31;100184.29;;;28.54;57.76
34073;BME280;20346;52.702;16.886;2022-08-19T06:26:16;100187.81;;;28.77;57.60
34073;BME280;20346;52.702;16.886;2022-08-19T06:29:04;100190.42;;;29.04;57.29
34073;BME280;20346;52.702;16.886;2022-08-19T06:31:52;100197.06;;;29.26;57.04
34073;BME280;20346;52.702;16.886;2022-08-19T06:34:38;100198.98;;;29.38;56.83
34073;BME280;20346;52.702;16.886;2022-08-19T06:37:23;100194.17;;;29.59;56.61
34073;BME280;20346;52.702;16.886;2022-08-19T06:40:09;100185.75;;;29.76;55.90
34073;BME280;20346;52.702;16.886;2022-08-19T06:42:56;100178.11;;;29.81;56.08
34073;BME280;20346;52.702;16.886;2022-08-19T06:45:43;100190.31;;;29.87;55.73
34073;BME280;20346;52.702;16.886;2022-08-19T06:48:28;100180.28;;;30.11;55.56
34073;BME280;20346;52.702;16.886;2022-08-19T06:51:15;100162.58;;;30.60;55.21
34073;BME280;20346;52.702;16.886;2022-08-19T06:54:03;100156.24;;;31.10;54.68
34073;BME280;20346;52.702;16.886;2022-08-19T06:56:47;100163.02;;;31.70;54.26
34073;BME280;20346;52.702;16.886;2022-08-19T06:59:33;100170.91;;;32.02;53.39
34073;BME280;20346;52.702;16.886;2022-08-19T07:02:18;100173.47;;;32.27;53.15
34073;BME280;20346;52.702;16.886;2022-08-19T07:05:04;100173.40;;;32.39;52.98
34073;BME280;20346;52.702;16.886;2022-08-19T07:07:50;100172.98;;;32.77;52.29
34073;BME280;20346;52.702;16.886;2022-08-19T07:10:35;100163.47;;;33.16;51.99
34073;BME280;20346;52.702;16.886;2022-08-19T07:13:22;100170.05;;;33.76;51.17
34073;BME280;20346;52.702;16.886;2022-08-19T07:16:08;100166.66;;;34.44;50.97
34073;BME280;20346;52.702;16.886;2022-08-19T07:18:56;100168.08;;;35.04;49.86
34073;BME280;20346;52.702;16.886;2022-08-19T07:21:41;100176.13;;;35.14;49.45
34073;BME280;20346;52.702;16.886;2022-08-19T07:24:26;100168.48;;;34.69;49.09
34073;BME280;20346;52.702;16.886;2022-08-19T07:27:13;100172.57;;;34.65;48.35
34073;BME280;20346;52.702;16.886;2022-08-19T07:29:58;100175.56;;;34.55;46.97
34073;BME280;20346;52.702;16.886;2022-08-19T07:32:43;100177.37;;;34.91;47.25
34073;BME280;20346;52.702;16.886;2022-08-19T07:35:28;100183.55;;;35.12;45.53
34073;BME280;20346;52.702;16.886;2022-08-19T07:38:16;100185.94;;;35.01;46.53
34073;BME280;20346;52.702;16.886;2022-08-19T07:41:01;100193.85;;;34.56;46.13
34073;BME280;20346;52.702;16.886;2022-08-19T07:43:47;100194.97;;;34.10;45.93
34073;BME280;20346;52.702;16.886;2022-08-19T07:46:35;100207.70;;;33.83;45.88
34073;BME280;20346;52.702;16.886;2022-08-19T07:49:23;100207.00;;;33.70;45.61
34073;BME280;20346;52.702;16.886;2022-08-19T07:52:09;100203.66;;;33.53;44.90
34073;BME280;20346;52.702;16.886;2022-08-19T07:54:54;100201.85;;;33.31;45.17
34073;BME280;20346;52.702;16.886;2022-08-19T07:57:39;100200.95;;;33.20;45.00
34073;BME280;20346;52.702;16.886;2022-08-19T08:00:24;100204.67;;;33.15;44.57
34073;BME280;20346;52.702;16.886;2022-08-19T08:03:10;100207.24;;;33.08;44.61
34073;BME280;20346;52.702;16.886;2022-08-19T08:05:56;100203.80;;;33.37;44.49
34073;BME280;20346;52.702;16.886;2022-08-19T08:09:02;100213.76;;;33.81;44.29
34073;BME280;20346;52.702;16.886;2022-08-19T08:12:03;100205.05;;;34.08;43.46
34073;BME280;20346;52.702;16.886;2022-08-19T08:14:53;100210.35;;;34.27;43.45
34073;BME280;20346;52.702;16.886;2022-08-19T08:17:40;100211.23;;;34.49;43.23
34073;BME280;20346;52.702;16.886;2022-08-19T08:20:25;100211.52;;;34.75;42.87
34073;BME280;20346;52.702;16.886;2022-08-19T08:23:10;100217.00;;;34.82;42.33
34073;BME280;20346;52.702;16.886;2022-08-19T08:26:07;100213.52;;;34.77;42.46
34073;BME280;20346;52.702;16.886;2022-08-19T08:28:54;100198.22;;;34.78;42.22
34073;BME280;20346;52.702;16.886;2022-08-19T08:31:43;100196.75;;;34.97;41.86
34073;BME280;20346;52.702;16.886;2022-08-19T08:34:28;100199.67;;;35.23;41.83
34073;BME280;20346;52.702;16.886;2022-08-19T08:37:14;100200.72;;;35.67;41.55
34073;BME280;20346;52.702;16.886;2022-08-19T08:40:01;100213.05;;;36.07;41.37
34073;BME280;20346;52.702;16.886;2022-08-19T08:42:57;100202.63;;;36.32;41.05
34073;BME280;20346;52.702;16.886;2022-08-19T08:45:53;100198.25;;;36.68;40.69
34073;BME280;20346;52.702;16.886;2022-08-19T08:48:54;100191.05;;;36.88;40.31
34073;BME280;20346;52.702;16.886;2022-08-19T08:51:42;100191.04;;;37.08;39.64
34073;BME280;20346;52.702;16.886;2022-08-19T08:54:38;100198.40;;;37.03;39.42
34073;BME280;20346;52.702;16.886;2022-08-19T09:00:41;100197.36;;;35.76;39.99
34073;BME280;20346;52.702;16.886;2022-08-19T09:03:28;100194.70;;;35.09;39.91
34073;BME280;20346;52.702;16.886;2022-08-19T09:09:40;100199.36;;;34.07;39.89
34073;BME280;20346;52.702;16.886;2022-08-19T09:12:46;100205.94;;;33.75;39.79
34073;BME280;20346;52.702;16.886;2022-08-19T09:15:41;100203.08;;;33.43;39.80
34073;BME280;20346;52.702;16.886;2022-08-19T09:18:43;100201.05;;;33.08;39.77
34073;BME280;20346;52.702;16.886;2022-08-19T09:21:31;100199.18;;;32.89;39.84
34073;BME280;20346;52.702;16.886;2022-08-19T09:24:16;100195.63;;;32.70;39.77
34073;BME280;20346;52.702;16.886;2022-08-19T09:27:01;100195.09;;;32.48;39.83
34073;BME280;20346;52.702;16.886;2022-08-19T09:29:47;100202.86;;;32.35;39.89
34073;BME280;20346;52.702;16.886;2022-08-19T09:32:34;100202.91;;;32.27;40.02
34073;BME280;20346;52.702;16.886;2022-08-19T09:35:21;100201.11;;;32.23;40.09
34073;BME280;20346;52.702;16.886;2022-08-19T09:38:07;100201.42;;;32.20;40.11
34073;BME280;20346;52.702;16.886;2022-08-19T09:40:52;100197.08;;;32.19;40.21
34073;BME280;20346;52.702;16.886;2022-08-19T09:43:37;100188.57;;;32.15;40.23
34073;BME280;20346;52.702;16.886;2022-08-19T09:46:23;100187.44;;;32.06;40.28
34073;BME280;20346;52.702;16.886;2022-08-19T09:49:09;100192.16;;;31.96;40.45
34073;BME280;20346;52.702;16.886;2022-08-19T09:51:54;100190.98;;;31.98;40.57
34073;BME280;20346;52.702;16.886;2022-08-19T09:54:40;100188.63;;;32.03;40.62
34073;BME280;20346;52.702;16.886;2022-08-19T09:57:25;100189.28;;;32.05;40.66
34073;BME280;20346;52.702;16.886;2022-08-19T10:00:11;100194.79;;;32.08;40.75
34073;BME280;20346;52.702;16.886;2022-08-19T10:02:56;100193.78;;;32.09;40.81
34073;BME280;20346;52.702;16.886;2022-08-19T10:05:42;100192.45;;;32.09;40.86
34073;BME280;20346;52.702;16.886;2022-08-19T10:08:35;100191.77;;;32.11;40.93
34073;BME280;20346;52.702;16.886;2022-08-19T10:11:21;100183.08;;;32.09;40.94
34073;BME280;20346;52.702;16.886;2022-08-19T10:14:07;100185.25;;;32.09;41.04
34073;BME280;20346;52.702;16.886;2022-08-19T10:16:52;100183.39;;;32.14;41.05
34073;BME280;20346;52.702;16.886;2022-08-19T10:19:37;100188.40;;;32.17;41.09
34073;BME280;20346;52.702;16.886;2022-08-19T10:22:23;100191.75;;;32.15;41.10
34073;BME280;20346;52.702;16.886;2022-08-19T10:25:08;100193.92;;;32.15;41.12
34073;BME280;20346;52.702;16.886;2022-08-19T10:27:53;100183.37;;;32.18;41.12
34073;BME280;20346;52.702;16.886;2022-08-19T10:30:39;100189.89;;;32.19;41.13
34073;BME280;20346;52.702;16.886;2022-08-19T10:33:25;100184.73;;;32.22;41.18
34073;BME280;20346;52.702;16.886;2022-08-19T10:36:16;100178.82;;;32.27;41.22
34073;BME280;20346;52.702;16.886;2022-08-19T10:39:07;100172.11;;;32.31;41.23
34073;BME280;20346;52.702;16.886;2022-08-19T10:41:53;100172.09;;;32.35;41.25
34073;BME280;20346;52.702;16.886;2022-08-19T10:44:40;100169.89;;;32.38;41.25
34073;BME280;20346;52.702;16.886;2022-08-19T10:47:25;100164.69;;;32.41;41.25
34073;BME280;20346;52.702;16.886;2022-08-19T10:50:11;100121.80;;;32.26;41.14
34073;BME280;20346;52.702;16.886;2022-08-19T10:53:14;100141.08;;;32.44;40.98
34073;BME280;20346;52.702;16.886;2022-08-19T10:55:59;100140.58;;;32.45;41.03
34073;BME280;20346;52.702;16.886;2022-08-19T10:59:03;100133.73;;;32.42;40.67
34073;BME280;20346;52.702;16.886;2022-08-19T11:01:50;100140.93;;;32.42;40.91
34073;BME280;20346;52.702;16.886;2022-08-19T11:04:37;100132.39;;;32.42;40.86
34073;BME280;20346;52.702;16.886;2022-08-19T11:07:23;100133.55;;;32.44;40.85
34073;BME280;20346;52.702;16.886;2022-08-19T11:10:10;100133.17;;;32.51;40.73
34073;BME280;20346;52.702;16.886;2022-08-19T11:12:56;100135.67;;;32.52;40.60
34073;BME280;20346;52.702;16.886;2022-08-19T11:15:41;100135.02;;;32.50;40.50
34073;BME280;20346;52.702;16.886;2022-08-19T11:18:27;100136.51;;;32.53;40.55
34073;BME280;20346;52.702;16.886;2022-08-19T11:21:21;100128.15;;;32.52;40.46
34073;BME280;20346;52.702;16.886;2022-08-19T11:24:20;100134.16;;;32.54;40.33
34073;BME280;20346;52.702;16.886;2022-08-19T11:27:06;100134.31;;;32.56;40.27
34073;BME280;20346;52.702;16.886;2022-08-19T11:29:53;100128.78;;;32.58;40.20
34073;BME280;20346;52.702;16.886;2022-08-19T11:32:38;100130.77;;;32.60;40.07
34073;BME280;20346;52.702;16.886;2022-08-19T11:35:23;100127.77;;;32.59;40.04
34073;BME280;20346;52.702;16.886;2022-08-19T11:38:08;100133.42;;;32.64;40.04
34073;BME280;20346;52.702;16.886;2022-08-19T11:41:00;100132.05;;;32.68;39.93
34073;BME280;20346;52.702;16.886;2022-08-19T11:43:47;100135.05;;;32.69;39.79
34073;BME280;20346;52.702;16.886;2022-08-19T11:46:31;100132.20;;;32.71;39.86
34073;BME280;20346;52.702;16.886;2022-08-19T11:49:18;100137.20;;;32.74;39.74
34073;BME280;20346;52.702;16.886;2022-08-19T11:52:03;100138.00;;;32.78;39.63
34073;BME280;20346;52.702;16.886;2022-08-19T11:54:48;100137.31;;;32.80;39.53
34073;BME280;20346;52.702;16.886;2022-08-19T11:57:33;100133.62;;;32.81;39.51
34073;BME280;20346;52.702;16.886;2022-08-19T12:00:19;100143.00;;;32.81;39.46
34073;BME280;20346;52.702;16.886;2022-08-19T12:03:04;100144.66;;;32.82;39.36
34073;BME280;20346;52.702;16.886;2022-08-19T12:05:49;100149.00;;;32.83;39.25
34073;BME280;20346;52.702;16.886;2022-08-19T12:08:35;100146.15;;;32.85;39.23
34073;BME280;20346;52.702;16.886;2022-08-19T12:11:20;100149.98;;;32.86;39.23
34073;BME280;20346;52.702;16.886;2022-08-19T12:14:09;100151.14;;;32.88;39.19
34073;BME280;20346;52.702;16.886;2022-08-19T12:16:54;100155.16;;;32.88;39.09
34073;BME280;20346;52.702;16.886;2022-08-19T12:19:39;100160.52;;;32.88;39.04
34073;BME280;20346;52.702;16.886;2022-08-19T12:22:24;100160.88;;;32.85;39.00
34073;BME280;20346;52.702;16.886;2022-08-19T12:25:11;100168.11;;;32.80;38.96
34073;BME280;20346;52.702;16.886;2022-08-19T12:27:57;100167.09;;;32.81;38.95
34073;BME280;20346;52.702;16.886;2022-08-19T12:30:42;100164.24;;;32.83;38.84
34073;BME280;20346;52.702;16.886;2022-08-19T12:33:27;100168.11;;;32.80;38.66
34073;BME280;20346;52.702;16.886;2022-08-19T12:36:14;100174.98;;;32.79;38.62
34073;BME280;20346;52.702;16.886;2022-08-19T12:39:00;100172.13;;;32.80;38.54
34073;BME280;20346;52.702;16.886;2022-08-19T12:41:45;100179.80;;;32.83;38.49
34073;BME280;20346;52.702;16.886;2022-08-19T12:44:30;100173.95;;;32.84;38.39
34073;BME280;20346;52.702;16.886;2022-08-19T12:47:16;100170.25;;;32.85;38.36
34073;BME280;20346;52.702;16.886;2022-08-19T12:50:02;100180.94;;;32.89;38.26
34073;BME280;20346;52.702;16.886;2022-08-19T12:52:48;100184.48;;;32.85;38.23
34073;BME280;20346;52.702;16.886;2022-08-19T12:55:33;100181.80;;;32.85;38.20
34073;BME280;20346;52.702;16.886;2022-08-19T12:58:18;100182.16;;;32.82;38.10
34073;BME280;20346;52.702;16.886;2022-08-19T13:01:12;100184.51;;;32.81;38.08
34073;BME280;20346;52.702;16.886;2022-08-19T13:03:59;100185.02;;;32.81;38.04
34073;BME280;20346;52.702;16.886;2022-08-19T13:06:43;100181.50;;;32.80;38.06
34073;BME280;20346;52.702;16.886;2022-08-19T13:09:28;100170.46;;;32.79;38.03
34073;BME280;20346;52.702;16.886;2022-08-19T13:12:13;100168.97;;;32.77;38.09
34073;BME280;20346;52.702;16.886;2022-08-19T13:14:58;100170.44;;;32.83;38.12
34073;BME280;20346;52.702;16.886;2022-08-19T13:17:43;100166.38;;;32.87;38.10
34073;BME280;20346;52.702;16.886;2022-08-19T13:20:27;100164.83;;;32.93;38.08
34073;BME280;20346;52.702;16.886;2022-08-19T13:23:12;100159.30;;;32.95;38.06
34073;BME280;20346;52.702;16.886;2022-08-19T13:25:58;100165.63;;;32.98;38.11
34073;BME280;20346;52.702;16.886;2022-08-19T13:28:45;100179.86;;;32.98;38.09
34073;BME280;20346;52.702;16.886;2022-08-19T13:31:48;100181.27;;;32.90;38.09
34073;BME280;20346;52.702;16.886;2022-08-19T13:34:51;100184.00;;;32.82;38.17
34073;BME280;20346;52.702;16.886;2022-08-19T13:37:36;100193.94;;;32.73;38.23
34073;BME280;20346;52.702;16.886;2022-08-19T13:40:26;100193.63;;;32.68;38.34
34073;BME280;20346;52.702;16.886;2022-08-19T13:43:13;100194.80;;;32.70;38.39
34073;BME280;20346;52.702;16.886;2022-08-19T13:45:58;100189.41;;;32.74;38.44
34073;BME280;20346;52.702;16.886;2022-08-19T13:48:44;100192.57;;;32.77;38.45
34073;BME280;20346;52.702;16.886;2022-08-19T13:51:29;100191.95;;;32.75;38.45
34073;BME280;20346;52.702;16.886;2022-08-19T13:54:14;100185.72;;;32.75;38.51
34073;BME280;20346;52.702;16.886;2022-08-19T13:56:59;100189.59;;;32.72;38.54
34073;BME280;20346;52.702;16.886;2022-08-19T13:59:44;100193.13;;;32.69;38.55
34073;BME280;20346;52.702;16.886;2022-08-19T14:02:29;100186.97;;;32.64;38.57
34073;BME280;20346;52.702;16.886;2022-08-19T14:05:15;100183.66;;;32.58;38.58
34073;BME280;20346;52.702;16.886;2022-08-19T14:08:00;100186.39;;;32.50;38.58
34073;BME280;20346;52.702;16.886;2022-08-19T14:10:45;100194.29;;;32.43;38.60
34073;BME280;20346;52.702;16.886;2022-08-19T14:13:30;100191.84;;;32.30;38.64
34073;BME280;20346;52.702;16.886;2022-08-19T14:16:17;100187.20;;;32.23;38.69
34073;BME280;20346;52.702;16.886;2022-08-19T14:19:02;100186.91;;;32.14;38.69
34073;BME280;20346;52.702;16.886;2022-08-19T14:21:47;100186.59;;;32.09;38.72
34073;BME280;20346;52.702;16.886;2022-08-19T14:24:32;100188.97;;;32.00;38.79
34073;BME280;20346;52.702;16.886;2022-08-19T14:27:17;100190.31;;;31.96;38.82
34073;BME280;20346;52.702;16.886;2022-08-19T14:30:03;100194.82;;;32.00;38.89
34073;BME280;20346;52.702;16.886;2022-08-19T14:32:50;100192.80;;;32.02;38.88